Arlington Heights, Illinois
Current Conditions -  °F | °C
As of 11:52 AM on Thursday 18 Dec 2014 (Local Time) from KPWK Reporting Station
Overcast Overcast  
Wind Chill: 18°   Ceiling: 2100
Heat Index: 25°   Visibility: 10mi
Dew Point: 16°   Wind: 6mph
Humidity: 69%   Direction: 260°W
Pressure: 30.27"   Gusts: NA
Location:  42.14°N, 87.99°W
Report Text: KPWK 181752Z 26005KT 10SM OVC021 M04/M09 A3027 RMK AO2 SLP260 T10391089 11039 21072 58015
Loading
Personal Weather Stations






























Interactive Weather Map New forecast layout! Learn more

10-Day Weather Forecast

Advertisements
Track Severe Weather on mobile